createdAt,value
2017-11-28T00:01:42.388Z,64.00
2017-11-28T00:06:44.941Z,64.20
2017-11-28T00:11:48.297Z,64.40
2017-11-28T00:16:50.896Z,64.40
2017-11-28T00:21:53.489Z,65.20
2017-11-28T00:26:56.035Z,64.50
2017-11-28T00:31:58.721Z,64.70
2017-11-28T00:37:01.369Z,64.80
2017-11-28T00:42:03.992Z,64.90
2017-11-28T00:47:06.601Z,65.10
2017-11-28T00:52:09.208Z,65.10
2017-11-28T00:57:11.849Z,65.40
2017-11-28T01:02:14.453Z,65.60
2017-11-28T01:07:17.074Z,65.60
2017-11-28T01:12:19.712Z,65.70
2017-11-28T01:17:22.379Z,65.80
2017-11-28T01:22:24.976Z,65.80
2017-11-28T01:27:27.586Z,65.90
2017-11-28T01:32:30.303Z,65.80
2017-11-28T01:37:32.915Z,66.00
2017-11-28T01:42:35.534Z,66.00
2017-11-28T01:47:38.203Z,66.10
2017-11-28T01:52:40.765Z,66.10
2017-11-28T01:57:43.406Z,66.10
2017-11-28T02:02:46.018Z,66.10
2017-11-28T02:07:48.623Z,66.20
2017-11-28T02:12:51.248Z,66.30
2017-11-28T02:17:53.902Z,66.30
2017-11-28T02:22:57.311Z,66.30
2017-11-28T02:27:59.880Z,66.20
2017-11-28T02:33:02.514Z,66.30
2017-11-28T02:38:05.909Z,66.30
2017-11-28T02:43:08.531Z,66.20
2017-11-28T02:48:11.145Z,66.20
2017-11-28T02:53:13.739Z,66.30
2017-11-28T02:58:22.071Z,66.10
2017-11-28T03:03:24.704Z,66.20
2017-11-28T03:08:27.304Z,66.10
2017-11-28T03:13:29.903Z,66.20
2017-11-28T03:18:43.156Z,66.00
2017-11-28T03:23:47.386Z,66.00
2017-11-28T03:28:53.194Z,66.10
2017-11-28T03:34:04.281Z,66.00
2017-11-28T03:39:07.678Z,66.20
2017-11-28T03:49:49.084Z,66.00
2017-11-28T03:54:51.761Z,66.00
2017-11-28T03:59:55.165Z,66.00
2017-11-28T04:04:57.785Z,66.10
2017-11-28T04:10:00.407Z,66.00
2017-11-28T04:15:03.069Z,66.00
2017-11-28T04:20:05.645Z,66.00
2017-11-28T04:25:08.229Z,66.00
2017-11-28T04:30:10.855Z,66.00
2017-11-28T04:35:13.418Z,65.90
2017-11-28T04:40:15.989Z,65.90
2017-11-28T04:45:18.603Z,65.90
2017-11-28T04:50:21.429Z,65.90
2017-11-28T04:55:24.005Z,65.90
2017-11-28T05:00:26.649Z,65.80
2017-11-28T05:05:29.220Z,65.80
2017-11-28T05:10:31.843Z,65.70
2017-11-28T05:15:34.480Z,65.80
2017-11-28T05:20:37.117Z,65.80
2017-11-28T05:25:39.691Z,65.80
2017-11-28T05:30:42.324Z,65.80
2017-11-28T05:35:44.940Z,65.80
2017-11-28T05:40:47.589Z,65.80
2017-11-28T05:45:54.755Z,65.80
2017-11-28T05:50:57.417Z,65.80
2017-11-28T05:56:00.016Z,65.80
2017-11-28T06:01:02.615Z,65.80
2017-11-28T06:06:05.234Z,65.70
2017-11-28T06:11:09.683Z,65.70
2017-11-28T06:16:13.346Z,65.60
2017-11-28T06:21:15.954Z,65.60
2017-11-28T06:26:18.572Z,65.70
2017-11-28T06:31:21.953Z,65.70
2017-11-28T06:36:24.625Z,65.60
2017-11-28T06:41:27.249Z,65.60
2017-11-28T06:46:29.892Z,65.50
2017-11-28T06:51:33.042Z,65.50
2017-11-28T06:56:35.649Z,65.60
2017-11-28T07:01:38.282Z,65.70
2017-11-28T07:06:41.910Z,65.60
2017-11-28T07:11:45.337Z,65.40
2017-11-28T07:16:47.980Z,65.40
2017-11-28T07:21:50.606Z,65.50
2017-11-28T07:26:54.054Z,65.50
2017-11-28T07:31:56.718Z,65.50
2017-11-28T07:36:59.437Z,65.40
2017-11-28T07:42:02.079Z,65.30
2017-11-28T07:47:05.267Z,65.40
2017-11-28T07:52:07.859Z,65.40
2017-11-28T07:57:10.503Z,65.40
2017-11-28T08:02:13.868Z,65.40
2017-11-28T08:07:16.475Z,65.30
2017-11-28T08:12:19.108Z,65.30
2017-11-28T08:17:22.549Z,66.00
2017-11-28T08:22:25.192Z,65.20
2017-11-28T08:27:27.909Z,66.00
2017-11-28T08:32:31.297Z,65.30
2017-11-28T08:37:33.924Z,65.30
2017-11-28T08:42:36.487Z,65.30
2017-11-28T08:47:39.137Z,65.30
2017-11-28T08:52:42.787Z,65.20
2017-11-28T08:57:45.394Z,65.20
2017-11-28T09:02:48.048Z,65.20
2017-11-28T09:07:50.707Z,65.20
2017-11-28T09:12:53.369Z,65.20
2017-11-28T09:17:55.991Z,65.20
2017-11-28T09:22:58.664Z,65.10
2017-11-28T09:28:01.484Z,65.10
2017-11-28T09:33:04.158Z,65.10
2017-11-28T09:38:06.785Z,65.00
2017-11-28T09:43:09.394Z,65.00
2017-11-28T09:48:12.010Z,65.00
2017-11-28T09:53:15.378Z,64.90
2017-11-28T09:58:18.006Z,64.90
2017-11-28T10:03:21.357Z,64.70
2017-11-28T10:08:24.082Z,64.30
2017-11-28T10:13:26.772Z,64.20
2017-11-28T10:18:29.409Z,63.60
2017-11-28T10:23:31.977Z,63.10
2017-11-28T10:28:34.594Z,62.70
2017-11-28T10:33:37.293Z,62.30
2017-11-28T10:38:40.695Z,62.20
2017-11-28T10:43:43.273Z,62.00
2017-11-28T10:48:45.853Z,62.10
2017-11-28T10:53:48.460Z,62.00
2017-11-28T10:58:51.087Z,61.90
2017-11-28T11:03:53.747Z,61.90
2017-11-28T11:08:56.377Z,61.80
2017-11-28T11:13:59.040Z,61.70
2017-11-28T11:19:01.900Z,61.60
2017-11-28T11:24:04.683Z,61.50
2017-11-28T11:29:08.154Z,61.30
2017-11-28T11:34:10.738Z,61.20
2017-11-28T11:39:13.338Z,61.10
2017-11-28T11:44:15.911Z,60.90
2017-11-28T11:49:19.136Z,60.80
2017-11-28T11:54:21.813Z,60.80
2017-11-28T11:59:25.277Z,60.40
2017-11-28T12:04:27.919Z,60.40
2017-11-28T12:09:31.317Z,60.30
2017-11-28T12:14:33.925Z,60.30
2017-11-28T12:19:37.326Z,60.30
2017-11-28T12:24:39.964Z,60.20
2017-11-28T12:29:42.605Z,60.20
2017-11-28T12:34:46.098Z,60.20
2017-11-28T12:39:48.761Z,60.20
2017-11-28T12:44:51.456Z,60.10
2017-11-28T12:49:54.976Z,60.10
2017-11-28T12:54:57.706Z,60.80
2017-11-28T13:00:00.979Z,60.80
2017-11-28T13:05:03.599Z,60.00
2017-11-28T13:10:06.265Z,60.10
2017-11-28T13:15:08.898Z,60.50
2017-11-28T13:20:11.556Z,60.90
2017-11-28T13:25:14.186Z,61.10
2017-11-28T13:30:16.865Z,61.20
2017-11-28T13:35:19.497Z,61.20
2017-11-28T13:40:22.147Z,61.50
2017-11-28T13:45:24.750Z,61.50
2017-11-28T13:50:27.382Z,61.50
2017-11-28T13:55:30.253Z,61.50
2017-11-28T14:00:32.937Z,61.70
2017-11-28T14:05:35.618Z,61.70
2017-11-28T14:10:39.039Z,61.70
2017-11-28T14:15:41.679Z,61.70
2017-11-28T14:26:23.013Z,61.60
2017-11-28T14:31:31.629Z,61.60
2017-11-28T14:36:34.710Z,61.60
2017-11-28T14:41:53.198Z,61.50
2017-11-28T14:46:56.149Z,61.40
2017-11-28T14:51:58.738Z,61.30
2017-11-28T14:57:05.976Z,61.20
2017-11-28T15:07:53.728Z,60.90
2017-11-28T15:13:02.138Z,60.90
2017-11-28T15:18:10.528Z,60.80
2017-11-28T15:23:19.778Z,60.70
2017-11-28T15:28:39.198Z,60.60
2017-11-28T15:33:41.977Z,60.40
2017-11-28T15:38:44.556Z,60.40
2017-11-28T15:43:47.189Z,60.20
2017-11-28T15:48:49.801Z,60.20
2017-11-28T15:53:52.422Z,60.00
2017-11-28T15:58:55.077Z,59.90
2017-11-28T16:03:57.709Z,59.80
2017-11-28T16:09:00.289Z,59.70
2017-11-28T16:14:02.879Z,59.60
2017-11-28T16:19:05.549Z,59.50
2017-11-28T16:24:08.189Z,59.50
2017-11-28T16:29:10.762Z,59.30
2017-11-28T16:34:13.347Z,59.30
2017-11-28T16:39:15.978Z,59.20
2017-11-28T16:44:20.074Z,59.10
2017-11-28T16:49:22.680Z,59.10
2017-11-28T16:54:25.300Z,59.00
2017-11-28T16:59:27.929Z,59.00
2017-11-28T17:04:31.274Z,58.90
2017-11-28T17:09:33.918Z,58.80
2017-11-28T17:14:36.548Z,59.50
2017-11-28T17:19:39.177Z,58.80
2017-11-28T17:24:41.771Z,58.70
2017-11-28T17:29:44.403Z,58.60
2017-11-28T17:34:47.786Z,58.60
2017-11-28T17:39:50.442Z,58.50
2017-11-28T17:44:53.065Z,58.40
2017-11-28T17:49:55.679Z,58.50
2017-11-28T17:54:58.308Z,58.40
2017-11-28T18:00:01.680Z,58.30
2017-11-28T18:05:04.259Z,58.30
2017-11-28T18:10:06.924Z,58.20
2017-11-28T18:15:10.370Z,58.20
2017-11-28T18:20:13.732Z,58.00
2017-11-28T18:25:16.418Z,58.00
2017-11-28T18:30:21.876Z,58.10
2017-11-28T18:35:25.372Z,58.00
2017-11-28T18:40:27.968Z,57.90
2017-11-28T18:45:30.565Z,57.90
2017-11-28T18:50:33.571Z,57.90
2017-11-28T18:55:36.213Z,57.80
2017-11-28T19:00:38.833Z,57.70
2017-11-28T19:05:41.422Z,57.70
2017-11-28T19:10:43.994Z,57.60
2017-11-28T19:15:47.345Z,57.50
2017-11-28T19:20:49.993Z,57.50
2017-11-28T19:25:53.503Z,57.40
2017-11-28T19:30:56.918Z,57.40
2017-11-28T19:35:59.658Z,57.90
2017-11-28T19:41:02.684Z,57.20
2017-11-28T19:46:05.334Z,57.10
2017-11-28T19:51:09.396Z,56.20
2017-11-28T19:56:12.005Z,56.30
2017-11-28T20:01:14.710Z,55.70
2017-11-28T20:06:17.296Z,55.70
2017-11-28T20:11:19.957Z,55.40
2017-11-28T20:16:23.307Z,54.80
2017-11-28T20:21:25.898Z,55.30
2017-11-28T20:26:28.523Z,54.50
2017-11-28T20:31:31.168Z,54.50
2017-11-28T20:36:33.835Z,54.60
2017-11-28T20:41:36.424Z,54.70
2017-11-28T20:46:40.527Z,54.80
2017-11-28T20:51:44.104Z,54.80
2017-11-28T20:56:46.787Z,54.80
2017-11-28T21:01:49.500Z,54.00
2017-11-28T21:06:52.152Z,53.90
2017-11-28T21:11:54.762Z,54.20
2017-11-28T21:16:57.443Z,54.40
2017-11-28T21:22:00.085Z,54.30
2017-11-28T21:27:02.649Z,54.70
2017-11-28T21:32:05.788Z,54.70
2017-11-28T21:37:08.541Z,54.80
2017-11-28T21:42:12.566Z,54.90
2017-11-28T21:47:15.261Z,54.80
2017-11-28T21:52:18.122Z,55.00
2017-11-28T21:57:21.341Z,55.10
2017-11-28T22:02:24.095Z,55.30
2017-11-28T22:07:27.504Z,55.20
2017-11-28T22:12:30.132Z,55.60
2017-11-28T22:17:34.564Z,55.60
2017-11-28T22:22:37.525Z,55.60
2017-11-28T22:27:40.160Z,55.70
2017-11-28T22:32:44.823Z,55.50
2017-11-28T22:37:47.559Z,55.50
2017-11-28T22:42:50.551Z,55.40
2017-11-28T22:47:53.557Z,55.40
2017-11-28T22:52:56.276Z,55.70
2017-11-28T22:57:59.948Z,55.50
2017-11-28T23:03:03.623Z,55.10
2017-11-28T23:08:07.024Z,55.90
2017-11-28T23:13:09.698Z,55.90
2017-11-28T23:18:12.273Z,56.00
2017-11-28T23:23:14.881Z,56.10
2017-11-28T23:28:17.532Z,56.00
2017-11-28T23:33:20.120Z,56.10
2017-11-28T23:38:22.721Z,56.30
2017-11-28T23:43:25.362Z,56.40
2017-11-28T23:48:28.244Z,56.50
2017-11-28T23:53:31.624Z,56.70
2017-11-28T23:58:34.226Z,56.60
